sensor_id;sensor_type;location;lat;lon;timestamp;pressure;altitude;pressure_sealevel;temperature;humidity
60240;BME280;46102;39.012;-7.064;2023-02-12T00:01:50;99497.91;;;7.75;61.35
60240;BME280;46102;39.012;-7.064;2023-02-12T00:03:51;99487.25;;;7.74;61.10
60240;BME280;46102;39.012;-7.064;2023-02-12T00:05:52;99493.25;;;7.76;61.10
60240;BME280;46102;39.012;-7.064;2023-02-12T00:07:53;99495.44;;;7.74;62.25
60240;BME280;46102;39.012;-7.064;2023-02-12T00:09:54;99498.19;;;7.74;61.73
60240;BME280;46102;39.012;-7.064;2023-02-12T00:11:54;99494.91;;;7.71;61.80
60240;BME280;46102;39.012;-7.064;2023-02-12T00:13:56;99501.72;;;7.74;61.47
60240;BME280;46102;39.012;-7.064;2023-02-12T00:15:57;99493.28;;;7.70;61.81
60240;BME280;46102;39.012;-7.064;2023-02-12T00:17:58;99491.09;;;7.72;61.63
60240;BME280;46102;39.012;-7.064;2023-02-12T00:19:59;99493.28;;;7.70;61.68
60240;BME280;46102;39.012;-7.064;2023-02-12T00:21:59;99497.09;;;7.69;62.20
60240;BME280;46102;39.012;-7.064;2023-02-12T00:24:01;99496.53;;;7.67;62.01
60240;BME280;46102;39.012;-7.064;2023-02-12T00:26:10;99500.38;;;7.66;61.69
60240;BME280;46102;39.012;-7.064;2023-02-12T00:28:16;99496.28;;;7.64;61.93
60240;BME280;46102;39.012;-7.064;2023-02-12T00:30:17;99490.53;;;7.65;62.30
60240;BME280;46102;39.012;-7.064;2023-02-12T00:32:18;99493.00;;;7.67;61.95
60240;BME280;46102;39.012;-7.064;2023-02-12T00:34:19;99495.47;;;7.68;62.19
60240;BME280;46102;39.012;-7.064;2023-02-12T00:36:22;99500.38;;;7.66;62.67
60240;BME280;46102;39.012;-7.064;2023-02-12T00:38:23;99497.91;;;7.75;62.30
60240;BME280;46102;39.012;-7.064;2023-02-12T00:40:24;99496.00;;;7.70;62.33
60240;BME280;46102;39.012;-7.064;2023-02-12T00:42:25;99497.91;;;7.70;62.70
60240;BME280;46102;39.012;-7.064;2023-02-12T00:44:26;99502.84;;;7.68;62.38
60240;BME280;46102;39.012;-7.064;2023-02-12T00:46:27;99496.56;;;7.72;62.31
60240;BME280;46102;39.012;-7.064;2023-02-12T00:48:28;99502.00;;;7.72;61.91
60240;BME280;46102;39.012;-7.064;2023-02-12T00:50:29;99500.88;;;7.79;62.29
60240;BME280;46102;39.012;-7.064;2023-02-12T00:52:29;99497.91;;;7.80;62.77
60240;BME280;46102;39.012;-7.064;2023-02-12T00:54:30;99496.78;;;7.81;62.39
60240;BME280;46102;39.012;-7.064;2023-02-12T00:56:31;99501.44;;;7.81;62.35
60240;BME280;46102;39.012;-7.064;2023-02-12T00:58:32;99492.97;;;7.82;62.28
60240;BME280;46102;39.012;-7.064;2023-02-12T01:00:33;99501.16;;;7.82;62.69
60240;BME280;46102;39.012;-7.064;2023-02-12T01:02:34;99494.59;;;7.83;62.00
60240;BME280;46102;39.012;-7.064;2023-02-12T01:04:35;99494.59;;;7.83;62.43
60240;BME280;46102;39.012;-7.064;2023-02-12T01:06:35;99501.72;;;7.84;62.53
60240;BME280;46102;39.012;-7.064;2023-02-12T01:08:36;99490.25;;;7.82;62.23
60240;BME280;46102;39.012;-7.064;2023-02-12T01:10:38;99492.97;;;7.87;61.89
60240;BME280;46102;39.012;-7.064;2023-02-12T01:12:39;99488.59;;;7.86;61.98
60240;BME280;46102;39.012;-7.064;2023-02-12T01:14:40;99488.06;;;7.84;62.52
60240;BME280;46102;39.012;-7.064;2023-02-12T01:16:41;99492.16;;;7.87;62.24
60240;BME280;46102;39.012;-7.064;2023-02-12T01:18:42;99486.13;;;7.85;62.45
60240;BME280;46102;39.012;-7.064;2023-02-12T01:20:43;99484.75;;;7.87;62.04
60240;BME280;46102;39.012;-7.064;2023-02-12T01:22:45;99486.94;;;7.85;62.32
60240;BME280;46102;39.012;-7.064;2023-02-12T01:24:47;99484.50;;;7.84;62.12
60240;BME280;46102;39.012;-7.064;2023-02-12T01:26:47;99487.50;;;7.82;62.58
60240;BME280;46102;39.012;-7.064;2023-02-12T01:28:50;99479.31;;;7.82;63.26
60240;BME280;46102;39.012;-7.064;2023-02-12T01:30:51;99489.69;;;7.85;62.71
60240;BME280;46102;39.012;-7.064;2023-02-12T01:32:52;99481.78;;;7.84;63.21
60240;BME280;46102;39.012;-7.064;2023-02-12T01:34:55;99483.41;;;7.85;62.65
60240;BME280;46102;39.012;-7.064;2023-02-12T01:36:56;99481.22;;;7.87;62.57
60240;BME280;46102;39.012;-7.064;2023-02-12T01:38:57;99486.69;;;7.87;63.25
60240;BME280;46102;39.012;-7.064;2023-02-12T01:41:07;99485.56;;;7.88;63.25
60240;BME280;46102;39.012;-7.064;2023-02-12T01:43:11;99489.16;;;7.88;62.86
60240;BME280;46102;39.012;-7.064;2023-02-12T01:47:17;99485.31;;;7.84;62.91
60240;BME280;46102;39.012;-7.064;2023-02-12T01:49:24;99488.03;;;7.89;63.23
60240;BME280;46102;39.012;-7.064;2023-02-12T01:51:28;99486.41;;;7.88;63.09
60240;BME280;46102;39.012;-7.064;2023-02-12T01:53:35;99488.88;;;7.85;62.96
60240;BME280;46102;39.012;-7.064;2023-02-12T01:55:38;99495.97;;;7.86;62.45
60240;BME280;46102;39.012;-7.064;2023-02-12T01:57:42;99496.25;;;7.84;63.09
60240;BME280;46102;39.012;-7.064;2023-02-12T01:59:44;99493.53;;;7.84;62.91
60240;BME280;46102;39.012;-7.064;2023-02-12T02:01:48;99494.34;;;7.85;63.38
60240;BME280;46102;39.012;-7.064;2023-02-12T02:03:51;99493.78;;;7.88;62.59
60240;BME280;46102;39.012;-7.064;2023-02-12T02:06:12;99497.03;;;7.90;62.64
60240;BME280;46102;39.012;-7.064;2023-02-12T02:08:13;99492.13;;;7.92;62.65
60240;BME280;46102;39.012;-7.064;2023-02-12T02:10:14;99489.69;;;7.90;62.80
60240;BME280;46102;39.012;-7.064;2023-02-12T02:12:15;99491.03;;;7.93;62.96
60240;BME280;46102;39.012;-7.064;2023-02-12T02:14:35;99494.88;;;7.87;62.97
60240;BME280;46102;39.012;-7.064;2023-02-12T02:16:38;99492.41;;;7.85;62.92
60240;BME280;46102;39.012;-7.064;2023-02-12T02:18:54;99491.59;;;7.85;62.65
60240;BME280;46102;39.012;-7.064;2023-02-12T02:32:17;99498.97;;;7.89;62.63
60240;BME280;46102;39.012;-7.064;2023-02-12T02:34:28;99494.88;;;7.87;62.70
60240;BME280;46102;39.012;-7.064;2023-02-12T02:36:34;99494.59;;;7.88;62.77
60240;BME280;46102;39.012;-7.064;2023-02-12T02:38:52;99484.75;;;7.87;62.54
60240;BME280;46102;39.012;-7.064;2023-02-12T02:43:28;99490.50;;;7.81;63.25
60240;BME280;46102;39.012;-7.064;2023-02-12T02:45:39;99485.84;;;7.81;62.87
60240;BME280;46102;39.012;-7.064;2023-02-12T02:47:54;99485.03;;;7.81;63.17
60240;BME280;46102;39.012;-7.064;2023-02-12T02:50:00;99490.50;;;7.81;63.30
60240;BME280;46102;39.012;-7.064;2023-02-12T02:52:07;99491.63;;;7.80;62.72
60240;BME280;46102;39.012;-7.064;2023-02-12T02:54:17;99485.84;;;7.81;62.71
60240;BME280;46102;39.012;-7.064;2023-02-12T02:56:20;99489.97;;;7.84;63.19
60240;BME280;46102;39.012;-7.064;2023-02-12T02:58:27;99490.78;;;7.84;63.17
60240;BME280;46102;39.012;-7.064;2023-02-12T03:00:37;99491.59;;;7.85;63.41
60240;BME280;46102;39.012;-7.064;2023-02-12T03:02:42;99491.59;;;7.85;62.89
60240;BME280;46102;39.012;-7.064;2023-02-12T03:04:51;99491.59;;;7.85;63.39
60240;BME280;46102;39.012;-7.064;2023-02-12T03:07:12;99498.41;;;7.87;63.23
60240;BME280;46102;39.012;-7.064;2023-02-12T03:09:20;99494.88;;;7.87;63.39
60240;BME280;46102;39.012;-7.064;2023-02-12T03:11:25;99504.19;;;7.86;62.76
60240;BME280;46102;39.012;-7.064;2023-02-12T03:17:03;99508.25;;;7.93;63.07
60240;BME280;46102;39.012;-7.064;2023-02-12T03:19:11;99501.16;;;7.92;63.25
60240;BME280;46102;39.012;-7.064;2023-02-12T03:21:18;99500.31;;;7.92;62.66
60240;BME280;46102;39.012;-7.064;2023-02-12T03:23:25;99503.34;;;7.90;63.37
60240;BME280;46102;39.012;-7.064;2023-02-12T03:25:38;99502.78;;;7.93;62.65
60240;BME280;46102;39.012;-7.064;2023-02-12T03:27:45;99496.78;;;7.91;62.82
60240;BME280;46102;39.012;-7.064;2023-02-12T03:29:47;99509.06;;;7.94;63.00
60240;BME280;46102;39.012;-7.064;2023-02-12T03:34:52;99503.34;;;7.96;62.78
60240;BME280;46102;39.012;-7.064;2023-02-12T03:39:15;99505.53;;;7.93;62.96
60240;BME280;46102;39.012;-7.064;2023-02-12T03:41:24;99506.34;;;7.94;63.11
60240;BME280;46102;39.012;-7.064;2023-02-12T03:43:51;99516.44;;;7.93;63.33
60240;BME280;46102;39.012;-7.064;2023-02-12T03:48:24;99509.09;;;7.84;63.06
60240;BME280;46102;39.012;-7.064;2023-02-12T03:52:28;99501.44;;;7.81;62.82
60240;BME280;46102;39.012;-7.064;2023-02-12T03:54:30;99498.44;;;7.82;62.83
60240;BME280;46102;39.012;-7.064;2023-02-12T03:56:36;99501.44;;;7.86;63.09
60240;BME280;46102;39.012;-7.064;2023-02-12T03:58:38;99489.69;;;7.80;62.96
60240;BME280;46102;39.012;-7.064;2023-02-12T04:00:40;99489.16;;;7.78;63.14
60240;BME280;46102;39.012;-7.064;2023-02-12T04:03:08;99489.72;;;7.75;63.07
60240;BME280;46102;39.012;-7.064;2023-02-12T04:05:21;99492.16;;;7.71;63.15
60240;BME280;46102;39.012;-7.064;2023-02-12T04:07:22;99488.06;;;7.69;63.58
60240;BME280;46102;39.012;-7.064;2023-02-12T04:09:24;99493.81;;;7.67;62.94
60240;BME280;46102;39.012;-7.064;2023-02-12T04:14:16;99496.00;;;7.70;63.23
60240;BME280;46102;39.012;-7.064;2023-02-12T04:16:24;99493.00;;;7.67;63.36
60240;BME280;46102;39.012;-7.064;2023-02-12T04:18:35;99504.19;;;7.65;63.25
60240;BME280;46102;39.012;-7.064;2023-02-12T04:23:15;99503.66;;;7.63;63.87
60240;BME280;46102;39.012;-7.064;2023-02-12T04:25:54;99498.72;;;7.65;63.44
60240;BME280;46102;39.012;-7.064;2023-02-12T04:28:24;99501.75;;;7.64;63.74
60240;BME280;46102;39.012;-7.064;2023-02-12T04:30:31;99502.56;;;7.64;63.49
60240;BME280;46102;39.012;-7.064;2023-02-12T04:32:46;99509.66;;;7.60;63.99
60240;BME280;46102;39.012;-7.064;2023-02-12T04:34:53;99507.19;;;7.59;64.00
60240;BME280;46102;39.012;-7.064;2023-02-12T04:37:03;99503.94;;;7.57;64.36
60240;BME280;46102;39.012;-7.064;2023-02-12T04:39:11;99503.66;;;7.58;63.79
60240;BME280;46102;39.012;-7.064;2023-02-12T04:41:14;99508.03;;;7.59;63.77
60240;BME280;46102;39.012;-7.064;2023-02-12T04:43:25;99506.94;;;7.60;64.18
60240;BME280;46102;39.012;-7.064;2023-02-12T04:45:29;99508.84;;;7.60;63.58
60240;BME280;46102;39.012;-7.064;2023-02-12T04:47:30;99509.66;;;7.60;63.93
60240;BME280;46102;39.012;-7.064;2023-02-12T04:49:31;99511.84;;;7.58;63.82
60240;BME280;46102;39.012;-7.064;2023-02-12T04:51:32;99508.56;;;7.56;63.86
60240;BME280;46102;39.012;-7.064;2023-02-12T04:53:33;99504.22;;;7.55;64.32
60240;BME280;46102;39.012;-7.064;2023-02-12T04:55:34;99509.13;;;7.53;64.03
60240;BME280;46102;39.012;-7.064;2023-02-12T04:57:34;99500.38;;;7.51;63.96
60240;BME280;46102;39.012;-7.064;2023-02-12T04:59:35;99502.31;;;7.50;64.29
60240;BME280;46102;39.012;-7.064;2023-02-12T05:01:37;99501.50;;;7.50;64.54
60240;BME280;46102;39.012;-7.064;2023-02-12T05:03:38;99502.00;;;7.47;64.52
60240;BME280;46102;39.012;-7.064;2023-02-12T05:05:39;99514.03;;;7.46;64.57
60240;BME280;46102;39.012;-7.064;2023-02-12T05:07:40;99506.13;;;7.44;64.20
60240;BME280;46102;39.012;-7.064;2023-02-12T05:09:40;99511.03;;;7.42;64.21
60240;BME280;46102;39.012;-7.064;2023-02-12T05:11:41;99502.28;;;7.40;64.59
60240;BME280;46102;39.012;-7.064;2023-02-12T05:13:42;99506.13;;;7.44;64.32
60240;BME280;46102;39.012;-7.064;2023-02-12T05:15:43;99512.69;;;7.43;64.47
60240;BME280;46102;39.012;-7.064;2023-02-12T05:17:44;99514.56;;;7.43;64.80
60240;BME280;46102;39.012;-7.064;2023-02-12T05:19:46;99514.31;;;7.39;65.27
60240;BME280;46102;39.012;-7.064;2023-02-12T05:21:49;99513.78;;;7.37;65.49
60240;BME280;46102;39.012;-7.064;2023-02-12T05:23:50;99515.41;;;7.33;65.74
60240;BME280;46102;39.012;-7.064;2023-02-12T05:25:51;99516.50;;;7.32;65.65
60240;BME280;46102;39.012;-7.064;2023-02-12T05:27:52;99520.06;;;7.27;65.76
60240;BME280;46102;39.012;-7.064;2023-02-12T05:30:08;99506.13;;;7.24;66.28
60240;BME280;46102;39.012;-7.064;2023-02-12T05:32:09;99507.47;;;7.26;65.87
60240;BME280;46102;39.012;-7.064;2023-02-12T05:34:11;99511.56;;;7.24;66.26
60240;BME280;46102;39.012;-7.064;2023-02-12T05:36:14;99507.47;;;7.21;66.08
60240;BME280;46102;39.012;-7.064;2023-02-12T05:38:15;99513.19;;;7.20;66.35
60240;BME280;46102;39.012;-7.064;2023-02-12T05:40:16;99509.91;;;7.18;66.57
60240;BME280;46102;39.012;-7.064;2023-02-12T05:42:17;99520.03;;;7.17;66.59
60240;BME280;46102;39.012;-7.064;2023-02-12T05:44:17;99513.19;;;7.20;66.22
60240;BME280;46102;39.012;-7.064;2023-02-12T05:46:20;99521.41;;;7.20;66.26
60240;BME280;46102;39.012;-7.064;2023-02-12T05:48:21;99524.94;;;7.20;66.33
60240;BME280;46102;39.012;-7.064;2023-02-12T05:50:22;99526.59;;;7.21;66.48
60240;BME280;46102;39.012;-7.064;2023-02-12T05:52:32;99526.31;;;7.18;66.63
60240;BME280;46102;39.012;-7.064;2023-02-12T05:54:33;99530.13;;;7.17;66.45
60240;BME280;46102;39.012;-7.064;2023-02-12T05:56:40;99531.22;;;7.21;66.20
60240;BME280;46102;39.012;-7.064;2023-02-12T05:58:44;99518.09;;;7.18;66.79
60240;BME280;46102;39.012;-7.064;2023-02-12T06:00:45;99527.13;;;7.18;66.51
60240;BME280;46102;39.012;-7.064;2023-02-12T06:02:46;99528.47;;;7.16;66.43
60240;BME280;46102;39.012;-7.064;2023-02-12T06:04:47;99525.50;;;7.17;66.43
60240;BME280;46102;39.012;-7.064;2023-02-12T06:06:49;99526.59;;;7.16;66.12
60240;BME280;46102;39.012;-7.064;2023-02-12T06:08:49;99530.94;;;7.17;66.62
60240;BME280;46102;39.012;-7.064;2023-02-12T06:10:50;99527.97;;;7.19;66.45
60240;BME280;46102;39.012;-7.064;2023-02-12T06:12:54;99528.50;;;7.21;66.41
60240;BME280;46102;39.012;-7.064;2023-02-12T06:14:54;99527.97;;;7.19;66.66
60240;BME280;46102;39.012;-7.064;2023-02-12T06:16:55;99530.13;;;7.22;66.44
60240;BME280;46102;39.012;-7.064;2023-02-12T06:18:56;99524.41;;;7.18;66.26
60240;BME280;46102;39.012;-7.064;2023-02-12T06:20:57;99529.88;;;7.18;65.89
60240;BME280;46102;39.012;-7.064;2023-02-12T06:22:58;99525.75;;;7.11;66.51
60240;BME280;46102;39.012;-7.064;2023-02-12T06:24:58;99532.88;;;7.12;66.51
60240;BME280;46102;39.012;-7.064;2023-02-12T06:26:59;99525.19;;;7.08;66.31
60240;BME280;46102;39.012;-7.064;2023-02-12T06:29:00;99533.38;;;7.14;66.05
60240;BME280;46102;39.012;-7.064;2023-02-12T06:31:01;99531.22;;;7.16;66.06
60240;BME280;46102;39.012;-7.064;2023-02-12T06:33:02;99536.13;;;7.14;65.49
60240;BME280;46102;39.012;-7.064;2023-02-12T06:35:03;99532.56;;;7.13;65.55
60240;BME280;46102;39.012;-7.064;2023-02-12T06:37:04;99532.56;;;7.13;65.97
60240;BME280;46102;39.012;-7.064;2023-02-12T06:39:05;99530.41;;;7.10;65.76
60240;BME280;46102;39.012;-7.064;2023-02-12T06:41:06;99541.56;;;7.08;65.77
60240;BME280;46102;39.012;-7.064;2023-02-12T06:43:07;99530.66;;;7.08;65.66
60240;BME280;46102;39.012;-7.064;2023-02-12T06:45:08;99538.56;;;7.10;65.87
60240;BME280;46102;39.012;-7.064;2023-02-12T06:47:09;99532.84;;;7.06;66.46
60240;BME280;46102;39.012;-7.064;2023-02-12T06:49:10;99542.69;;;7.07;66.10
60240;BME280;46102;39.012;-7.064;2023-02-12T06:51:14;99541.84;;;7.07;66.73
60240;BME280;46102;39.012;-7.064;2023-02-12T06:53:15;99538.03;;;7.08;66.49
60240;BME280;46102;39.012;-7.064;2023-02-12T06:55:16;99539.66;;;7.09;66.50
60240;BME280;46102;39.012;-7.064;2023-02-12T06:57:17;99547.03;;;7.08;66.97
60240;BME280;46102;39.012;-7.064;2023-02-12T06:59:18;99544.84;;;7.11;66.76
60240;BME280;46102;39.012;-7.064;2023-02-12T07:01:22;99558.50;;;7.11;66.89
60240;BME280;46102;39.012;-7.064;2023-02-12T07:03:23;99556.31;;;7.07;67.34
60240;BME280;46102;39.012;-7.064;2023-02-12T07:05:24;99559.31;;;7.06;66.92
60240;BME280;46102;39.012;-7.064;2023-02-12T07:07:25;99552.78;;;7.07;66.94
60240;BME280;46102;39.012;-7.064;2023-02-12T07:09:26;99558.50;;;7.05;67.37
60240;BME280;46102;39.012;-7.064;2023-02-12T07:11:29;99558.22;;;7.07;67.35
60240;BME280;46102;39.012;-7.064;2023-02-12T07:13:30;99566.69;;;7.05;67.51
60240;BME280;46102;39.012;-7.064;2023-02-12T07:15:37;99580.88;;;7.07;67.24
60240;BME280;46102;39.012;-7.064;2023-02-12T07:17:38;99570.78;;;7.08;67.20
60240;BME280;46102;39.012;-7.064;2023-02-12T07:19:39;99577.03;;;7.08;67.70
60240;BME280;46102;39.012;-7.064;2023-02-12T07:21:40;99587.69;;;7.10;67.47
60240;BME280;46102;39.012;-7.064;2023-02-12T07:23:41;99584.16;;;7.09;67.88
60240;BME280;46102;39.012;-7.064;2023-02-12T07:25:41;99581.69;;;7.08;67.62
60240;BME280;46102;39.012;-7.064;2023-02-12T07:27:42;99583.59;;;7.07;67.77
60240;BME280;46102;39.012;-7.064;2023-02-12T07:29:43;99575.69;;;7.06;67.44
60240;BME280;46102;39.012;-7.064;2023-02-12T07:31:44;99589.06;;;7.07;67.44
60240;BME280;46102;39.012;-7.064;2023-02-12T07:33:45;99582.78;;;7.07;67.59
60240;BME280;46102;39.012;-7.064;2023-02-12T07:35:46;99583.88;;;7.06;67.72
60240;BME280;46102;39.012;-7.064;2023-02-12T07:37:47;99580.59;;;7.04;67.62
60240;BME280;46102;39.012;-7.064;2023-02-12T07:39:48;99584.41;;;7.03;67.83
60240;BME280;46102;39.012;-7.064;2023-02-12T07:41:49;99584.38;;;6.98;68.07
60240;BME280;46102;39.012;-7.064;2023-02-12T07:43:55;99584.13;;;6.99;67.42
60240;BME280;46102;39.012;-7.064;2023-02-12T07:46:05;99579.75;;;6.98;67.87
60240;BME280;46102;39.012;-7.064;2023-02-12T07:48:05;99592.84;;;6.96;67.77
60240;BME280;46102;39.012;-7.064;2023-02-12T07:50:06;99592.00;;;6.96;67.83
60240;BME280;46102;39.012;-7.064;2023-02-12T07:52:07;99586.03;;;6.99;67.71
60240;BME280;46102;39.012;-7.064;2023-02-12T07:54:09;99602.97;;;7.01;68.01
60240;BME280;46102;39.012;-7.064;2023-02-12T07:58:12;99612.25;;;7.05;67.88
60240;BME280;46102;39.012;-7.064;2023-02-12T08:00:14;99614.97;;;7.05;67.49
60240;BME280;46102;39.012;-7.064;2023-02-12T08:02:15;99619.59;;;7.04;67.47
60240;BME280;46102;39.012;-7.064;2023-02-12T08:04:19;99620.44;;;7.05;67.46
60240;BME280;46102;39.012;-7.064;2023-02-12T08:06:22;99620.72;;;7.08;67.43
60240;BME280;46102;39.012;-7.064;2023-02-12T08:08:23;99621.00;;;7.12;67.14
60240;BME280;46102;39.012;-7.064;2023-02-12T08:10:24;99621.00;;;7.17;67.56
60240;BME280;46102;39.012;-7.064;2023-02-12T08:12:25;99614.72;;;7.17;66.95
60240;BME280;46102;39.012;-7.064;2023-02-12T08:14:25;99613.63;;;7.18;67.21
60240;BME280;46102;39.012;-7.064;2023-02-12T08:16:27;99621.81;;;7.18;67.04
60240;BME280;46102;39.012;-7.064;2023-02-12T08:18:30;99618.03;;;7.24;66.64
60240;BME280;46102;39.012;-7.064;2023-02-12T08:20:33;99621.84;;;7.28;66.92
60240;BME280;46102;39.012;-7.064;2023-02-12T08:22:34;99618.59;;;7.36;66.59
60240;BME280;46102;39.012;-7.064;2023-02-12T08:24:34;99619.16;;;7.43;65.68
60240;BME280;46102;39.012;-7.064;2023-02-12T08:26:37;99623.25;;;7.46;65.59
60240;BME280;46102;39.012;-7.064;2023-02-12T08:28:40;99627.34;;;7.48;65.65
60240;BME280;46102;39.012;-7.064;2023-02-12T08:30:41;99628.72;;;7.51;64.99
60240;BME280;46102;39.012;-7.064;2023-02-12T08:32:42;99634.72;;;7.53;65.51
60240;BME280;46102;39.012;-7.064;2023-02-12T08:34:43;99638.28;;;7.54;65.23
60240;BME280;46102;39.012;-7.064;2023-02-12T08:36:44;99644.28;;;7.61;65.12
60240;BME280;46102;39.012;-7.064;2023-02-12T08:38:46;99641.31;;;7.67;64.36
60240;BME280;46102;39.012;-7.064;2023-02-12T08:40:47;99648.41;;;7.68;64.90
60240;BME280;46102;39.012;-7.064;2023-02-12T08:42:48;99644.59;;;7.69;65.01
60240;BME280;46102;39.012;-7.064;2023-02-12T08:44:49;99644.31;;;7.76;64.49
60240;BME280;46102;39.012;-7.064;2023-02-12T08:46:50;99644.59;;;7.85;64.86
60240;BME280;46102;39.012;-7.064;2023-02-12T08:48:53;99642.97;;;7.89;64.62
60240;BME280;46102;39.012;-7.064;2023-02-12T08:50:54;99644.31;;;7.91;63.60
60240;BME280;46102;39.012;-7.064;2023-02-12T08:52:55;99641.59;;;7.97;63.98
60240;BME280;46102;39.012;-7.064;2023-02-12T08:54:56;99641.31;;;8.03;63.96
60240;BME280;46102;39.012;-7.064;2023-02-12T08:56:59;99636.13;;;8.12;63.54
60240;BME280;46102;39.012;-7.064;2023-02-12T08:59:01;99637.22;;;8.26;62.76
60240;BME280;46102;39.012;-7.064;2023-02-12T09:01:05;99639.66;;;8.43;62.46
60240;BME280;46102;39.012;-7.064;2023-02-12T09:03:08;99642.91;;;8.55;61.94
60240;BME280;46102;39.012;-7.064;2023-02-12T09:05:09;99645.88;;;8.74;62.16
60240;BME280;46102;39.012;-7.064;2023-02-12T09:07:10;99628.84;;;8.93;60.56
60240;BME280;46102;39.012;-7.064;2023-02-12T09:09:10;99626.81;;;9.19;60.36
60240;BME280;46102;39.012;-7.064;2023-02-12T09:11:16;99627.13;;;9.57;58.84
60240;BME280;46102;39.012;-7.064;2023-02-12T09:13:17;99629.03;;;9.96;57.58
60240;BME280;46102;39.012;-7.064;2023-02-12T09:15:18;99634.22;;;10.27;56.76
60240;BME280;46102;39.012;-7.064;2023-02-12T09:17:19;99638.38;;;10.53;56.08
60240;BME280;46102;39.012;-7.064;2023-02-12T09:19:20;99636.44;;;10.83;55.01
60240;BME280;46102;39.012;-7.064;2023-02-12T09:21:21;99640.63;;;10.99;54.34
60240;BME280;46102;39.012;-7.064;2023-02-12T09:23:22;99637.88;;;11.18;53.78
60240;BME280;46102;39.012;-7.064;2023-02-12T09:25:23;99637.88;;;11.18;52.79
60240;BME280;46102;39.012;-7.064;2023-02-12T09:27:24;99642.28;;;11.19;52.95
60240;BME280;46102;39.012;-7.064;2023-02-12T09:29:25;99630.50;;;11.38;52.60
60240;BME280;46102;39.012;-7.064;2023-02-12T09:31:27;99638.72;;;11.57;51.32
60240;BME280;46102;39.012;-7.064;2023-02-12T09:33:28;99641.34;;;11.67;50.40
60240;BME280;46102;39.012;-7.064;2023-02-12T09:35:29;99632.53;;;11.84;50.28
60240;BME280;46102;39.012;-7.064;2023-02-12T09:37:30;99647.22;;;11.98;49.90
60240;BME280;46102;39.012;-7.064;2023-02-12T09:39:30;99646.50;;;12.06;49.37
60240;BME280;46102;39.012;-7.064;2023-02-12T09:44:06;99649.38;;;12.15;48.50
60240;BME280;46102;39.012;-7.064;2023-02-12T09:46:18;99647.66;;;12.19;48.43
60240;BME280;46102;39.012;-7.064;2023-02-12T09:48:44;99648.75;;;12.37;48.13
60240;BME280;46102;39.012;-7.064;2023-02-12T09:50:53;99643.53;;;12.49;47.57
60240;BME280;46102;39.012;-7.064;2023-02-12T09:52:55;99639.97;;;12.49;47.56
60240;BME280;46102;39.012;-7.064;2023-02-12T09:54:58;99646.13;;;12.74;47.26
60240;BME280;46102;39.012;-7.064;2023-02-12T09:57:04;99650.72;;;12.92;46.74
60240;BME280;46102;39.012;-7.064;2023-02-12T09:59:07;99643.38;;;12.87;46.80
60240;BME280;46102;39.012;-7.064;2023-02-12T10:01:12;99655.19;;;12.60;47.09
60240;BME280;46102;39.012;-7.064;2023-02-12T10:03:15;99646.53;;;12.20;47.37
60240;BME280;46102;39.012;-7.064;2023-02-12T10:05:19;99644.38;;;11.84;48.75
60240;BME280;46102;39.012;-7.064;2023-02-12T10:12:20;99645.06;;;11.57;49.33
60240;BME280;46102;39.012;-7.064;2023-02-12T10:28:34;99646.81;;;11.86;49.81
60240;BME280;46102;39.012;-7.064;2023-02-12T10:30:47;99657.28;;;11.84;49.43
60240;BME280;46102;39.012;-7.064;2023-02-12T10:32:53;99659.16;;;11.70;49.62
60240;BME280;46102;39.012;-7.064;2023-02-12T10:34:56;99657.16;;;11.56;49.72
60240;BME280;46102;39.012;-7.064;2023-02-12T10:39:25;99657.31;;;11.46;50.32
60240;BME280;46102;39.012;-7.064;2023-02-12T10:41:29;99652.38;;;11.43;50.32
60240;BME280;46102;39.012;-7.064;2023-02-12T10:43:32;99645.72;;;11.49;50.90
60240;BME280;46102;39.012;-7.064;2023-02-12T10:45:35;99638.97;;;11.60;50.00
60240;BME280;46102;39.012;-7.064;2023-02-12T10:47:37;99643.78;;;11.69;50.12
60240;BME280;46102;39.012;-7.064;2023-02-12T10:49:37;99643.31;;;11.61;49.68
60240;BME280;46102;39.012;-7.064;2023-02-12T10:53:52;99645.56;;;11.59;49.89
60240;BME280;46102;39.012;-7.064;2023-02-12T10:58:21;99653.75;;;11.64;50.39
60240;BME280;46102;39.012;-7.064;2023-02-12T11:00:33;99651.81;;;11.65;49.90
60240;BME280;46102;39.012;-7.064;2023-02-12T11:02:34;99650.69;;;11.66;49.89
60240;BME280;46102;39.012;-7.064;2023-02-12T11:04:35;99652.03;;;11.69;49.55
60240;BME280;46102;39.012;-7.064;2023-02-12T11:06:36;99652.25;;;11.72;50.04
60240;BME280;46102;39.012;-7.064;2023-02-12T11:08:38;99649.41;;;11.77;50.19
60240;BME280;46102;39.012;-7.064;2023-02-12T11:10:40;99656.69;;;11.87;49.80
60240;BME280;46102;39.012;-7.064;2023-02-12T11:12:41;99658.94;;;11.85;49.27
60240;BME280;46102;39.012;-7.064;2023-02-12T11:14:53;99664.38;;;11.90;49.34
60240;BME280;46102;39.012;-7.064;2023-02-12T11:16:59;99656.50;;;12.02;49.39
60240;BME280;46102;39.012;-7.064;2023-02-12T11:19:04;99652.53;;;12.08;49.14
60240;BME280;46102;39.012;-7.064;2023-02-12T11:21:08;99655.59;;;12.07;49.42
60240;BME280;46102;39.012;-7.064;2023-02-12T11:25:25;99650.94;;;12.21;49.03
60240;BME280;46102;39.012;-7.064;2023-02-12T11:27:29;99644.91;;;12.19;49.21
60240;BME280;46102;39.012;-7.064;2023-02-12T11:29:30;99654.22;;;12.23;48.90
60240;BME280;46102;39.012;-7.064;2023-02-12T11:31:33;99647.28;;;12.26;48.73
60240;BME280;46102;39.012;-7.064;2023-02-12T11:33:36;99641.38;;;12.33;48.42
60240;BME280;46102;39.012;-7.064;2023-02-12T11:35:48;99646.22;;;12.55;48.32
60240;BME280;46102;39.012;-7.064;2023-02-12T11:37:55;99645.44;;;12.82;47.92
60240;BME280;46102;39.012;-7.064;2023-02-12T11:39:57;99643.47;;;12.96;47.20
60240;BME280;46102;39.012;-7.064;2023-02-12T11:42:04;99640.19;;;13.08;47.10
60240;BME280;46102;39.012;-7.064;2023-02-12T11:44:19;99640.00;;;13.18;46.28
60240;BME280;46102;39.012;-7.064;2023-02-12T11:46:24;99644.31;;;13.10;46.54
60240;BME280;46102;39.012;-7.064;2023-02-12T11:48:32;99644.09;;;13.07;46.72
60240;BME280;46102;39.012;-7.064;2023-02-12T11:50:35;99637.75;;;13.20;46.70
60240;BME280;46102;39.012;-7.064;2023-02-12T11:52:36;99636.63;;;13.35;46.70
60240;BME280;46102;39.012;-7.064;2023-02-12T11:54:41;99613.78;;;13.35;46.55
60240;BME280;46102;39.012;-7.064;2023-02-12T11:56:46;99625.09;;;13.47;46.46
60240;BME280;46102;39.012;-7.064;2023-02-12T11:58:49;99615.69;;;13.48;46.58
60240;BME280;46102;39.012;-7.064;2023-02-12T12:05:12;99611.59;;;13.45;46.07